M I D A S
Marine Information and Data Acquisition System
Tripno 2156 of the Zeeleeuw from 2011-08-02 06:40:21 to 2011-08-02 15:04:15
Back to CruiseResearch ActivitiesStationsMapUnderway DataData graphs

EquipmentUnitsComment
TimeDGPSUTC
LatitudeDGPSDM.mWGS84
LongitudeDGPSDM.mWGS84
TemperatureSBE03/SBE38deg celciusITS90
ConductivitySBE21S/mITS90
SalinitySBE21 Practical Salinity Units
ChlorophylAChelsea fluorimeterg/lCalibrated in Aceton
Missing or incorrect values are displayed as -999
Sea surface data collected by the RV Zeeleeuw from 2011-08-02 06:20:20 to 2011-08-02 16:17:02
                                                                                    Next 1000 lines
Time Latitude Longitude Temperature Conductivity Salinity ChlorophylA
2011-08-02 06:20:30 51°13.639 2°56.028 21.0669 -999 -999 -999
2011-08-02 06:20:36 51°13.638 2°56.026 21.0673 -999 -999 -999
2011-08-02 06:20:40 51°13.636 2°56.024 21.0587 -999 -999 -999
2011-08-02 06:20:45 51°13.636 2°56.023 21.068 -999 -999 -999
2011-08-02 06:20:51 51°13.637 2°56.023 21.0679 -999 -999 -999
2011-08-02 06:20:55 51°13.637 2°56.022 21.0689 -999 -999 -999
2011-08-02 06:21:00 51°13.637 2°56.022 21.0666 -999 -999 -999
2011-08-02 06:21:05 51°13.637 2°56.021 21.0617 -999 -999 -999
2011-08-02 06:21:10 51°13.637 2°56.021 21.0611 -999 -999 -999
2011-08-02 06:21:15 51°13.637 2°56.021 21.0613 -999 -999 -999
2011-08-02 06:21:20 51°13.637 2°56.021 21.0618 -999 -999 -999
2011-08-02 06:21:24 51°13.637 2°56.021 21.0625 -999 -999 -999
2011-08-02 06:21:29 51°13.637 2°56.022 21.0611 -999 -999 -999
2011-08-02 06:21:34 51°13.637 2°56.021 21.0581 -999 -999 -999
2011-08-02 06:21:40 51°13.638 2°56.021 21.0589 -999 -999 -999
2011-08-02 06:21:45 51°13.637 2°56.021 21.063 -999 -999 -999
2011-08-02 06:21:49 51°13.637 2°56.021 21.0535 -999 -999 -999
2011-08-02 06:21:54 51°13.637 2°56.021 21.0631 -999 -999 -999
2011-08-02 06:21:59 51°13.637 2°56.021 21.0675 -999 -999 -999
2011-08-02 06:22:04 51°13.637 2°56.02 21.0685 -999 -999 -999
2011-08-02 06:22:09 51°13.637 2°56.02 21.0661 -999 -999 -999
2011-08-02 06:22:13 51°13.637 2°56.02 21.0657 -999 -999 -999
2011-08-02 06:22:18 51°13.637 2°56.02 21.066 -999 -999 -999
2011-08-02 06:22:24 51°13.637 2°56.02 21.0628 -999 -999 -999
2011-08-02 06:22:29 51°13.637 2°56.02 21.0615 -999 -999 -999
2011-08-02 06:22:33 51°13.637 2°56.02 21.0613 -999 -999 -999
2011-08-02 06:22:38 51°13.637 2°56.02 21.0615 -999 -999 -999
2011-08-02 06:22:43 51°13.637 2°56.02 21.0615 -999 -999 -999
2011-08-02 06:22:49 51°13.637 2°56.02 21.0621 -999 -999 -999
2011-08-02 06:22:53 51°13.637 2°56.02 21.0623 -999 -999 -999
2011-08-02 06:22:57 51°13.637 2°56.02 21.0631 -999 -999 -999
2011-08-02 06:23:03 51°13.637 2°56.02 21.0627 -999 -999 -999
2011-08-02 06:23:09 51°13.637 2°56.02 21.063 -999 -999 -999
2011-08-02 06:23:13 51°13.637 2°56.02 21.0638 -999 -999 -999
2011-08-02 06:23:18 51°13.637 2°56.02 21.0641 -999 -999 -999
2011-08-02 06:23:23 51°13.637 2°56.02 21.0653 -999 -999 -999
2011-08-02 06:23:28 51°13.636 2°56.02 21.0662 -999 -999 -999
2011-08-02 06:23:33 51°13.636 2°56.02 21.0657 -999 -999 -999
2011-08-02 06:23:38 51°13.636 2°56.02 21.0665 -999 -999 -999
2011-08-02 06:23:43 51°13.636 2°56.02 21.0652 -999 -999 -999
2011-08-02 06:23:48 51°13.636 2°56.02 21.0648 -999 -999 -999
2011-08-02 06:23:53 51°13.636 2°56.02 21.0646 -999 -999 -999
2011-08-02 06:23:57 51°13.636 2°56.02 21.0621 -999 -999 -999
2011-08-02 06:24:02 51°13.636 2°56.02 21.0623 -999 -999 -999
2011-08-02 06:24:07 51°13.636 2°56.02 21.0613 -999 -999 -999
2011-08-02 06:24:12 51°13.636 2°56.02 21.0579 -999 -999 -999
2011-08-02 06:24:18 51°13.636 2°56.02 21.0573 -999 -999 -999
2011-08-02 06:24:23 51°13.636 2°56.02 21.0594 -999 -999 -999
2011-08-02 06:24:28 51°13.636 2°56.02 21.0605 -999 -999 -999
2011-08-02 06:24:33 51°13.636 2°56.02 21.0619 -999 -999 -999
2011-08-02 06:24:38 51°13.636 2°56.02 21.0622 -999 -999 -999
2011-08-02 06:24:43 51°13.636 2°56.02 21.0606 -999 -999 -999
2011-08-02 06:24:48 51°13.636 2°56.02 21.0598 -999 -999 -999
2011-08-02 06:24:53 51°13.636 2°56.02 21.0596 -999 -999 -999
2011-08-02 06:24:58 51°13.636 2°56.02 21.059 -999 -999 -999
2011-08-02 06:25:02 51°13.636 2°56.02 21.0591 -999 -999 -999
2011-08-02 06:25:08 51°13.636 2°56.02 21.0592 -999 -999 -999
2011-08-02 06:25:13 51°13.636 2°56.02 21.0606 -999 -999 -999
2011-08-02 06:25:19 51°13.636 2°56.02 21.0618 -999 -999 -999
2011-08-02 06:25:23 51°13.636 2°56.02 21.062 -999 -999 -999
2011-08-02 06:25:28 51°13.636 2°56.02 21.0631 -999 -999 -999
2011-08-02 06:25:33 51°13.636 2°56.02 21.0623 -999 -999 -999
2011-08-02 06:25:38 51°13.636 2°56.02 21.0622 -999 -999 -999
2011-08-02 06:25:43 51°13.636 2°56.02 21.0628 -999 -999 -999
2011-08-02 06:25:47 51°13.636 2°56.02 21.0635 -999 -999 -999
2011-08-02 06:25:53 51°13.636 2°56.02 21.064 -999 -999 -999
2011-08-02 06:25:58 51°13.636 2°56.02 21.0642 -999 -999 -999
2011-08-02 06:26:03 51°13.636 2°56.02 21.0651 -999 -999 -999
2011-08-02 06:26:07 51°13.636 2°56.02 21.0643 -999 -999 -999
2011-08-02 06:26:13 51°13.636 2°56.02 21.0658 -999 -999 -999
2011-08-02 06:26:18 51°13.636 2°56.02 21.0676 -999 -999 -999
2011-08-02 06:26:23 51°13.636 2°56.019 21.0657 -999 -999 -999
2011-08-02 06:26:28 51°13.636 2°56.019 21.0711 -999 -999 -999
2011-08-02 06:26:33 51°13.636 2°56.019 21.072 -999 -999 -999
2011-08-02 06:26:38 51°13.636 2°56.019 21.0734 -999 -999 -999
2011-08-02 06:26:43 51°13.636 2°56.019 21.0737 -999 -999 -999
2011-08-02 06:26:48 51°13.636 2°56.019 21.074 -999 -999 -999
2011-08-02 06:26:53 51°13.636 2°56.019 21.0736 -999 -999 -999
2011-08-02 06:26:58 51°13.636 2°56.019 21.0735 -999 -999 -999
2011-08-02 06:27:03 51°13.636 2°56.019 21.073 -999 -999 -999
2011-08-02 06:27:08 51°13.636 2°56.019 21.0727 -999 -999 -999
2011-08-02 06:27:12 51°13.636 2°56.019 21.0717 -999 -999 -999
2011-08-02 06:27:18 51°13.636 2°56.019 21.0708 -999 -999 -999
2011-08-02 06:27:23 51°13.636 2°56.019 21.07 -999 -999 -999
2011-08-02 06:27:28 51°13.636 2°56.019 21.0702 -999 -999 -999
2011-08-02 06:27:32 51°13.636 2°56.019 21.0697 -999 -999 -999
2011-08-02 06:27:37 51°13.636 2°56.019 21.0693 -999 -999 -999
2011-08-02 06:27:42 51°13.636 2°56.019 21.069 -999 -999 -999
2011-08-02 06:27:48 51°13.636 2°56.019 21.068 -999 -999 -999
2011-08-02 06:27:53 51°13.636 2°56.019 21.0685 -999 -999 -999
2011-08-02 06:27:58 51°13.636 2°56.019 21.0688 -999 -999 -999
2011-08-02 06:28:03 51°13.636 2°56.019 21.0679 -999 -999 -999
2011-08-02 06:28:08 51°13.636 2°56.019 21.068 -999 -999 -999
2011-08-02 06:28:13 51°13.636 2°56.019 21.0685 -999 -999 -999
2011-08-02 06:28:18 51°13.636 2°56.019 21.0686 -999 -999 -999
2011-08-02 06:28:23 51°13.636 2°56.019 21.0689 -999 -999 -999
2011-08-02 06:28:28 51°13.636 2°56.019 21.0685 -999 -999 -999
2011-08-02 06:28:33 51°13.636 2°56.019 21.0693 -999 -999 -999
2011-08-02 06:28:38 51°13.636 2°56.019 21.0697 -999 -999 -999
2011-08-02 06:28:43 51°13.636 2°56.019 21.0698 -999 -999 -999
2011-08-02 06:28:48 51°13.635 2°56.02 21.0692 -999 -999 -999
2011-08-02 06:28:53 51°13.635 2°56.02 21.0695 -999 -999 -999
2011-08-02 06:28:57 51°13.635 2°56.021 21.071 -999 -999 -999
2011-08-02 06:29:03 51°13.636 2°56.021 21.0717 -999 -999 -999
2011-08-02 06:29:08 51°13.636 2°56.02 21.0721 -999 -999 -999
2011-08-02 06:29:13 51°13.636 2°56.02 21.0724 -999 -999 -999
2011-08-02 06:29:17 51°13.637 2°56.019 21.0717 -999 -999 -999
2011-08-02 06:29:23 51°13.637 2°56.019 21.0722 -999 -999 -999
2011-08-02 06:29:28 51°13.636 2°56.019 21.0722 -999 -999 -999
2011-08-02 06:29:33 51°13.636 2°56.019 21.073 -999 -999 -999
2011-08-02 06:29:37 51°13.636 2°56.019 21.0727 -999 -999 -999
2011-08-02 06:29:42 51°13.636 2°56.019 21.0744 -999 -999 -999
2011-08-02 06:29:48 51°13.636 2°56.019 21.0749 -999 -999 -999
2011-08-02 06:29:53 51°13.636 2°56.019 21.0753 -999 -999 -999
2011-08-02 06:29:58 51°13.636 2°56.019 21.0746 -999 -999 -999
2011-08-02 06:30:02 51°13.636 2°56.019 21.0755 -999 -999 -999
2011-08-02 06:30:07 51°13.635 2°56.019 21.0752 -999 -999 -999
2011-08-02 06:30:13 51°13.635 2°56.019 21.0761 -999 -999 -999
2011-08-02 06:30:17 51°13.635 2°56.019 21.0774 -999 -999 -999
2011-08-02 06:30:23 51°13.635 2°56.019 21.0787 -999 -999 -999
2011-08-02 06:30:28 51°13.635 2°56.019 21.0775 -999 -999 -999
2011-08-02 06:30:33 51°13.635 2°56.019 21.0781 -999 -999 -999
2011-08-02 06:30:38 51°13.635 2°56.019 21.0792 -999 -999 -999
2011-08-02 06:30:43 51°13.635 2°56.019 21.0795 -999 -999 -999
2011-08-02 06:30:48 51°13.635 2°56.019 21.0786 -999 -999 -999
2011-08-02 06:30:53 51°13.635 2°56.019 21.0787 -999 -999 -999
2011-08-02 06:30:58 51°13.635 2°56.019 21.0793 -999 -999 -999
2011-08-02 06:31:03 51°13.635 2°56.019 21.0804 -999 -999 -999
2011-08-02 06:31:09 51°13.634 2°56.019 21.0814 -999 -999 -999
2011-08-02 06:31:13 51°13.634 2°56.019 21.0816 -999 -999 -999
2011-08-02 06:31:18 51°13.634 2°56.019 21.0813 -999 -999 -999
2011-08-02 06:31:23 51°13.634 2°56.019 21.0814 -999 -999 -999
2011-08-02 06:31:28 51°13.634 2°56.019 21.0814 -999 -999 -999
2011-08-02 06:31:33 51°13.634 2°56.019 21.0819 -999 -999 -999
2011-08-02 06:31:38 51°13.634 2°56.019 21.0822 -999 -999 -999
2011-08-02 06:31:42 51°13.634 2°56.019 21.0831 -999 -999 -999
2011-08-02 06:31:48 51°13.634 2°56.02 21.0833 -999 -999 -999
2011-08-02 06:31:53 51°13.634 2°56.02 21.0836 -999 -999 -999
2011-08-02 06:31:58 51°13.634 2°56.02 21.0842 -999 -999 -999
2011-08-02 06:32:02 51°13.634 2°56.02 21.0839 -999 -999 -999
2011-08-02 06:32:08 51°13.634 2°56.02 21.0846 -999 -999 -999
2011-08-02 06:32:12 51°13.634 2°56.02 21.085 -999 -999 -999
2011-08-02 06:32:18 51°13.634 2°56.02 21.085 -999 -999 -999
2011-08-02 06:32:22 51°13.634 2°56.02 21.0858 -999 -999 -999
2011-08-02 06:32:27 51°13.634 2°56.02 21.0856 -999 -999 -999
2011-08-02 06:32:32 51°13.634 2°56.02 21.0858 -999 -999 -999
2011-08-02 06:32:38 51°13.634 2°56.02 21.0859 -999 -999 -999
2011-08-02 06:32:42 51°13.634 2°56.02 21.086 -999 -999 -999
2011-08-02 06:32:47 51°13.634 2°56.02 21.0855 -999 -999 -999
2011-08-02 06:32:53 51°13.634 2°56.02 21.0865 -999 -999 -999
2011-08-02 06:32:57 51°13.634 2°56.02 21.0859 -999 -999 -999
2011-08-02 06:33:02 51°13.634 2°56.02 21.0871 -999 -999 -999
2011-08-02 06:33:08 51°13.634 2°56.02 21.0883 -999 -999 -999
2011-08-02 06:33:13 51°13.634 2°56.02 21.0878 -999 -999 -999
2011-08-02 06:33:18 51°13.634 2°56.02 21.0885 -999 -999 -999
2011-08-02 06:33:23 51°13.634 2°56.02 21.089 -999 -999 -999
2011-08-02 06:33:28 51°13.634 2°56.02 21.0907 -999 -999 -999
2011-08-02 06:33:33 51°13.634 2°56.02 21.0919 -999 -999 -999
2011-08-02 06:33:38 51°13.634 2°56.02 21.0931 -999 -999 -999
2011-08-02 06:33:43 51°13.634 2°56.019 21.0923 -999 -999 -999
2011-08-02 06:33:48 51°13.634 2°56.019 21.0937 -999 -999 -999
2011-08-02 06:33:53 51°13.634 2°56.019 21.0933 -999 -999 -999
2011-08-02 06:33:58 51°13.635 2°56.019 21.0948 -999 -999 -999
2011-08-02 06:34:03 51°13.635 2°56.019 21.0937 -999 -999 -999
2011-08-02 06:34:08 51°13.635 2°56.019 21.0939 -999 -999 -999
2011-08-02 06:34:13 51°13.635 2°56.019 21.0939 -999 -999 -999
2011-08-02 06:34:18 51°13.635 2°56.019 21.0941 -999 -999 -999
2011-08-02 06:34:23 51°13.635 2°56.019 21.0936 -999 -999 -999
2011-08-02 06:34:28 51°13.635 2°56.019 21.0937 -999 -999 -999
2011-08-02 06:34:33 51°13.635 2°56.019 21.0945 -999 -999 -999
2011-08-02 06:34:38 51°13.635 2°56.019 21.095 -999 -999 -999
2011-08-02 06:34:43 51°13.635 2°56.019 21.0943 -999 -999 -999
2011-08-02 06:34:47 51°13.635 2°56.019 21.0941 -999 -999 -999
2011-08-02 06:34:52 51°13.635 2°56.019 21.0937 -999 -999 -999
2011-08-02 06:34:58 51°13.635 2°56.019 21.0946 -999 -999 -999
2011-08-02 06:35:03 51°13.635 2°56.019 21.0948 -999 -999 -999
2011-08-02 06:35:08 51°13.635 2°56.019 21.0955 -999 -999 -999
2011-08-02 06:35:13 51°13.635 2°56.019 21.0967 -999 -999 -999
2011-08-02 06:35:18 51°13.635 2°56.019 21.0974 -999 -999 -999
2011-08-02 06:35:23 51°13.635 2°56.019 21.0978 -999 -999 -999
2011-08-02 06:35:28 51°13.635 2°56.019 21.0984 -999 -999 -999
2011-08-02 06:35:33 51°13.635 2°56.019 21.0993 -999 -999 -999
2011-08-02 06:35:38 51°13.635 2°56.019 21.0991 -999 -999 -999
2011-08-02 06:35:43 51°13.635 2°56.019 21.0993 -999 -999 -999
2011-08-02 06:35:48 51°13.635 2°56.019 21.1006 -999 -999 -999
2011-08-02 06:35:52 51°13.635 2°56.019 21.1004 -999 -999 -999
2011-08-02 06:35:58 51°13.635 2°56.019 21.1011 -999 -999 -999
2011-08-02 06:36:03 51°13.635 2°56.019 21.1021 -999 -999 -999
2011-08-02 06:36:08 51°13.636 2°56.019 21.1028 -999 -999 -999
2011-08-02 06:36:12 51°13.636 2°56.019 21.1036 -999 -999 -999
2011-08-02 06:36:18 51°13.636 2°56.019 21.1035 -999 -999 -999
2011-08-02 06:36:23 51°13.636 2°56.019 21.1045 -999 -999 -999
2011-08-02 06:36:28 51°13.636 2°56.019 21.1047 -999 -999 -999
2011-08-02 06:36:32 51°13.636 2°56.019 21.1053 -999 -999 -999
2011-08-02 06:36:38 51°13.636 2°56.019 21.106 -999 -999 -999
2011-08-02 06:36:43 51°13.636 2°56.019 21.1067 -999 -999 -999
2011-08-02 06:36:48 51°13.636 2°56.019 21.108 -999 -999 -999
2011-08-02 06:36:52 51°13.636 2°56.019 21.1075 -999 -999 -999
2011-08-02 06:36:57 51°13.636 2°56.019 21.1089 -999 -999 -999
2011-08-02 06:37:03 51°13.636 2°56.019 21.1102 -999 -999 -999
2011-08-02 06:37:08 51°13.636 2°56.019 21.1106 -999 -999 -999
2011-08-02 06:37:13 51°13.636 2°56.019 21.1104 -999 -999 -999
2011-08-02 06:37:18 51°13.636 2°56.019 21.1109 -999 -999 -999
2011-08-02 06:37:23 51°13.636 2°56.019 21.1107 -999 -999 -999
2011-08-02 06:37:28 51°13.636 2°56.019 21.1117 -999 -999 -999
2011-08-02 06:37:33 51°13.636 2°56.019 21.1134 -999 -999 -999
2011-08-02 06:37:38 51°13.636 2°56.019 21.1136 -999 -999 -999
2011-08-02 06:37:43 51°13.636 2°56.019 21.1154 -999 -999 -999
2011-08-02 06:37:48 51°13.636 2°56.019 21.1156 -999 -999 -999
2011-08-02 06:37:53 51°13.636 2°56.019 21.1162 -999 -999 -999
2011-08-02 06:37:57 51°13.636 2°56.019 21.1181 -999 -999 -999
2011-08-02 06:38:03 51°13.636 2°56.019 21.117 -999 -999 -999
2011-08-02 06:38:09 51°13.636 2°56.019 21.1189 -999 -999 -999
2011-08-02 06:38:13 51°13.636 2°56.019 21.1202 -999 -999 -999
2011-08-02 06:38:17 51°13.636 2°56.019 21.12 -999 -999 -999
2011-08-02 06:38:23 51°13.636 2°56.019 21.1196 -999 -999 -999
2011-08-02 06:38:28 51°13.636 2°56.018 21.1207 -999 -999 -999
2011-08-02 06:38:33 51°13.636 2°56.018 21.1208 -999 -999 -999
2011-08-02 06:38:38 51°13.636 2°56.019 21.1205 -999 -999 -999
2011-08-02 06:38:42 51°13.636 2°56.019 21.1201 -999 -999 -999
2011-08-02 06:38:48 51°13.636 2°56.018 21.1209 -999 -999 -999
2011-08-02 06:38:53 51°13.636 2°56.018 21.1203 -999 -999 -999
2011-08-02 06:38:58 51°13.636 2°56.018 21.1212 -999 -999 -999
2011-08-02 06:39:02 51°13.636 2°56.019 21.1219 -999 -999 -999
2011-08-02 06:39:08 51°13.636 2°56.018 21.122 -999 -999 -999
2011-08-02 06:39:13 51°13.636 2°56.019 21.1216 -999 -999 -999
2011-08-02 06:39:18 51°13.636 2°56.019 21.1219 -999 -999 -999
2011-08-02 06:39:22 51°13.636 2°56.018 21.1213 -999 -999 -999
2011-08-02 06:39:27 51°13.636 2°56.018 21.1229 -999 -999 -999
2011-08-02 06:39:34 51°13.636 2°56.019 21.1246 -999 -999 -999
2011-08-02 06:39:39 51°13.636 2°56.018 21.1261 -999 -999 -999
2011-08-02 06:39:43 51°13.636 2°56.018 21.1266 -999 -999 -999
2011-08-02 06:39:48 51°13.636 2°56.018 21.1282 -999 -999 -999
2011-08-02 06:39:53 51°13.636 2°56.018 21.1286 -999 -999 -999
2011-08-02 06:39:58 51°13.636 2°56.018 21.1291 -999 -999 -999
2011-08-02 06:40:03 51°13.636 2°56.018 21.1287 -999 -999 -999
2011-08-02 06:40:07 51°13.636 2°56.018 21.1298 -999 -999 -999
2011-08-02 06:40:13 51°13.636 2°56.018 21.1308 -999 -999 -999
2011-08-02 06:40:18 51°13.636 2°56.018 21.1306 -999 -999 -999
2011-08-02 06:40:23 51°13.636 2°56.018 21.1311 -999 -999 -999
2011-08-02 06:40:27 51°13.636 2°56.018 21.1325 -999 -999 -999
2011-08-02 06:40:33 51°13.636 2°56.018 21.1323 -999 -999 -999
2011-08-02 06:40:38 51°13.636 2°56.018 21.1329 -999 -999 -999
2011-08-02 06:40:42 51°13.636 2°56.018 21.1333 -999 -999 -999
2011-08-02 06:40:48 51°13.636 2°56.018 21.1321 -999 -999 -999
2011-08-02 06:40:53 51°13.636 2°56.018 21.132 -999 -999 -999
2011-08-02 06:40:58 51°13.636 2°56.018 21.1322 -999 -999 -999
2011-08-02 06:41:03 51°13.635 2°56.018 21.1316 -999 -999 -999
2011-08-02 06:41:08 51°13.635 2°56.018 21.1328 -999 -999 -999
2011-08-02 06:41:13 51°13.635 2°56.017 21.1324 -999 -999 -999
2011-08-02 06:41:18 51°13.635 2°56.017 21.1324 -999 -999 -999
2011-08-02 06:41:23 51°13.635 2°56.017 21.132 -999 -999 -999
2011-08-02 06:41:28 51°13.635 2°56.017 21.1336 -999 -999 -999
2011-08-02 06:41:32 51°13.635 2°56.017 21.1325 -999 -999 -999
2011-08-02 06:41:38 51°13.636 2°56.017 21.1335 -999 -999 -999
2011-08-02 06:41:43 51°13.636 2°56.016 21.1338 -999 -999 -999
2011-08-02 06:41:48 51°13.636 2°56.016 21.1357 -999 -999 -999
2011-08-02 06:41:52 51°13.636 2°56.016 21.1359 -999 -999 -999
2011-08-02 06:41:58 51°13.636 2°56.016 21.1384 -999 -999 -999
2011-08-02 06:42:03 51°13.636 2°56.016 21.1406 -999 -999 -999
2011-08-02 06:42:08 51°13.636 2°56.016 21.1418 -999 -999 -999
2011-08-02 06:42:12 51°13.636 2°56.015 21.1417 -999 -999 -999
2011-08-02 06:42:18 51°13.636 2°56.015 21.1425 -999 -999 -999
2011-08-02 06:42:23 51°13.636 2°56.015 21.1443 -999 -999 -999
2011-08-02 06:42:28 51°13.636 2°56.015 21.1454 -999 -999 -999
2011-08-02 06:42:33 51°13.636 2°56.015 21.1461 -999 -999 -999
2011-08-02 06:42:38 51°13.635 2°56.015 21.1443 -999 -999 -999
2011-08-02 06:42:43 51°13.635 2°56.015 21.1433 -999 -999 -999
2011-08-02 06:42:48 51°13.635 2°56.014 21.1423 -999 -999 -999
2011-08-02 06:42:53 51°13.635 2°56.014 21.1415 -999 -999 -999
2011-08-02 06:42:58 51°13.635 2°56.014 21.1416 -999 -999 -999
2011-08-02 06:43:03 51°13.635 2°56.014 21.1417 -999 -999 -999
2011-08-02 06:43:08 51°13.635 2°56.014 21.1403 -999 -999 -999
2011-08-02 06:43:13 51°13.635 2°56.014 21.1406 -999 -999 -999
2011-08-02 06:43:18 51°13.635 2°56.013 21.1424 -999 -999 -999
2011-08-02 06:43:23 51°13.635 2°56.013 21.1428 -999 -999 -999
2011-08-02 06:43:28 51°13.635 2°56.013 21.1443 -999 -999 -999
2011-08-02 06:43:33 51°13.635 2°56.013 21.145 -999 -999 -999
2011-08-02 06:43:38 51°13.635 2°56.013 21.1468 -999 -999 -999
2011-08-02 06:43:43 51°13.635 2°56.013 21.1487 -999 -999 -999
2011-08-02 06:43:48 51°13.635 2°56.012 21.1491 -999 -999 -999
2011-08-02 06:43:53 51°13.634 2°56.012 21.1514 -999 -999 -999
2011-08-02 06:43:58 51°13.634 2°56.012 21.1518 -999 -999 -999
2011-08-02 06:44:03 51°13.634 2°56.013 21.1544 -999 -999 -999
2011-08-02 06:44:08 51°13.634 2°56.013 21.1569 -999 -999 -999
2011-08-02 06:44:13 51°13.633 2°56.013 21.1581 -999 -999 -999
2011-08-02 06:44:18 51°13.633 2°56.014 21.1594 -999 -999 -999
2011-08-02 06:44:23 51°13.632 2°56.015 21.1601 -999 -999 -999
2011-08-02 06:44:28 51°13.631 2°56.015 21.1691 -999 -999 -999
2011-08-02 06:44:33 51°13.63 2°56.017 21.1684 -999 -999 -999
2011-08-02 06:44:37 51°13.629 2°56.018 21.1721 -999 -999 -999
2011-08-02 06:44:43 51°13.628 2°56.02 21.1721 -999 -999 -999
2011-08-02 06:44:48 51°13.626 2°56.022 21.1723 -999 -999 -999
2011-08-02 06:44:54 51°13.624 2°56.025 21.1721 -999 -999 -999
2011-08-02 06:44:58 51°13.623 2°56.027 21.1699 -999 -999 -999
2011-08-02 06:45:03 51°13.62 2°56.03 21.1678 -999 -999 -999
2011-08-02 06:45:08 51°13.618 2°56.033 21.1688 -999 -999 -999
2011-08-02 06:45:13 51°13.616 2°56.037 21.1674 -999 -999 -999
2011-08-02 06:45:18 51°13.613 2°56.04 21.1672 -999 -999 -999
2011-08-02 06:45:22 51°13.611 2°56.043 21.1664 -999 -999 -999
2011-08-02 06:45:29 51°13.607 2°56.049 21.1648 -999 -999 -999
2011-08-02 06:45:32 51°13.605 2°56.052 21.1646 -999 -999 -999
2011-08-02 06:45:37 51°13.602 2°56.056 21.164 -999 -999 -999
2011-08-02 06:45:42 51°13.599 2°56.06 21.1623 -999 -999 -999
2011-08-02 06:45:47 51°13.596 2°56.065 21.1609 -999 -999 -999
2011-08-02 06:45:53 51°13.592 2°56.07 21.1602 -999 -999 -999
2011-08-02 06:45:58 51°13.589 2°56.074 21.1589 -999 -999 -999
2011-08-02 06:46:03 51°13.586 2°56.079 21.1595 -999 -999 -999
2011-08-02 06:46:08 51°13.583 2°56.083 21.158 -999 -999 -999
2011-08-02 06:46:13 51°13.58 2°56.087 21.1584 -999 -999 -999
2011-08-02 06:46:18 51°13.577 2°56.091 21.1588 -999 -999 -999
2011-08-02 06:46:23 51°13.574 2°56.095 21.1565 -999 -999 -999
2011-08-02 06:46:27 51°13.572 2°56.099 21.159 -999 -999 -999
2011-08-02 06:46:33 51°13.569 2°56.103 21.1603 -999 -999 -999
2011-08-02 06:46:39 51°13.566 2°56.108 21.1631 -999 -999 -999
2011-08-02 06:46:43 51°13.564 2°56.111 21.1638 -999 -999 -999
2011-08-02 06:46:48 51°13.562 2°56.115 21.1656 -999 -999 -999
2011-08-02 06:46:52 51°13.56 2°56.118 21.1668 -999 -999 -999
2011-08-02 06:46:58 51°13.558 2°56.123 21.1688 -999 -999 -999
2011-08-02 06:47:03 51°13.556 2°56.127 21.1693 -999 -999 -999
2011-08-02 06:47:08 51°13.554 2°56.13 21.1707 -999 -999 -999
2011-08-02 06:47:12 51°13.552 2°56.133 21.1711 -999 -999 -999
2011-08-02 06:47:18 51°13.55 2°56.138 21.1734 -999 -999 -999
2011-08-02 06:47:23 51°13.548 2°56.142 21.1735 -999 -999 -999
2011-08-02 06:47:28 51°13.547 2°56.145 21.1748 -999 -999 -999
2011-08-02 06:47:32 51°13.545 2°56.148 21.1755 -999 -999 -999
2011-08-02 06:47:38 51°13.544 2°56.153 21.1755 -999 -999 -999
2011-08-02 06:47:43 51°13.542 2°56.157 21.1802 -999 -999 -999
2011-08-02 06:47:48 51°13.541 2°56.16 21.1871 -999 -999 -999
2011-08-02 06:47:53 51°13.54 2°56.164 21.1922 -999 -999 -999
2011-08-02 06:47:58 51°13.539 2°56.168 21.1994 -999 -999 -999
2011-08-02 06:48:03 51°13.538 2°56.172 21.2043 -999 -999 -999
2011-08-02 06:48:08 51°13.537 2°56.177 21.2068 -999 -999 -999
2011-08-02 06:48:13 51°13.536 2°56.181 21.2083 -999 -999 -999
2011-08-02 06:48:18 51°13.536 2°56.185 21.2075 -999 -999 -999
2011-08-02 06:48:23 51°13.536 2°56.19 21.2075 -999 -999 -999
2011-08-02 06:48:28 51°13.536 2°56.194 21.2079 -999 -999 -999
2011-08-02 06:48:33 51°13.536 2°56.198 21.2088 -999 -999 -999
2011-08-02 06:48:38 51°13.536 2°56.203 21.2081 -999 -999 -999
2011-08-02 06:48:43 51°13.537 2°56.207 21.2068 -999 -999 -999
2011-08-02 06:48:48 51°13.537 2°56.211 21.2057 -999 -999 -999
2011-08-02 06:48:52 51°13.538 2°56.214 21.2001 -999 -999 -999
2011-08-02 06:48:58 51°13.539 2°56.219 21.1974 -999 -999 -999
2011-08-02 06:49:04 51°13.54 2°56.224 21.1853 -999 -999 -999
2011-08-02 06:49:08 51°13.541 2°56.226 21.1784 -999 -999 -999
2011-08-02 06:49:12 51°13.542 2°56.229 21.1743 -999 -999 -999
2011-08-02 06:49:18 51°13.544 2°56.233 21.1743 -999 -999 -999
2011-08-02 06:49:24 51°13.545 2°56.237 21.1716 -999 -999 -999
2011-08-02 06:49:29 51°13.546 2°56.24 21.1592 -999 -999 -999
2011-08-02 06:49:33 51°13.547 2°56.242 21.1674 -999 -999 -999
2011-08-02 06:49:38 51°13.548 2°56.244 21.1701 -999 -999 -999
2011-08-02 06:49:43 51°13.549 2°56.245 21.173 -999 -999 -999
2011-08-02 06:49:49 51°13.55 2°56.247 21.1467 -999 -999 -999
2011-08-02 06:49:53 51°13.55 2°56.247 21.1121 -999 -999 -999
2011-08-02 06:49:58 51°13.549 2°56.247 21.155 -999 -999 -999
2011-08-02 06:50:03 51°13.549 2°56.247 21.1942 -999 -999 -999
2011-08-02 06:50:08 51°13.548 2°56.246 21.2264 -999 -999 -999
2011-08-02 06:50:13 51°13.547 2°56.244 21.1884 -999 -999 -999
2011-08-02 06:50:18 51°13.546 2°56.242 21.2117 -999 -999 -999
2011-08-02 06:50:23 51°13.545 2°56.241 21.2251 -999 -999 -999
2011-08-02 06:50:29 51°13.545 2°56.24 21.243 -999 -999 -999
2011-08-02 06:50:35 51°13.546 2°56.241 21.2289 -999 -999 -999
2011-08-02 06:50:41 51°13.548 2°56.242 21.2002 -999 -999 -999
2011-08-02 06:50:46 51°13.549 2°56.243 21.1989 -999 -999 -999
2011-08-02 06:50:51 51°13.55 2°56.244 21.1678 -999 -999 -999
2011-08-02 06:50:56 51°13.55 2°56.244 21.1945 -999 -999 -999
2011-08-02 06:51:01 51°13.551 2°56.244 21.1953 -999 -999 -999
2011-08-02 06:51:06 51°13.551 2°56.244 21.1956 -999 -999 -999
2011-08-02 06:51:11 51°13.55 2°56.244 21.1971 -999 -999 -999
2011-08-02 06:51:16 51°13.55 2°56.244 21.1965 -999 -999 -999
2011-08-02 06:51:21 51°13.549 2°56.243 21.2002 -999 -999 -999
2011-08-02 06:51:26 51°13.548 2°56.243 21.1977 -999 -999 -999
2011-08-02 06:51:31 51°13.547 2°56.243 21.201 -999 -999 -999
2011-08-02 06:51:35 51°13.546 2°56.242 21.2095 -999 -999 -999
2011-08-02 06:51:41 51°13.544 2°56.241 21.2116 -999 -999 -999
2011-08-02 06:51:46 51°13.543 2°56.241 21.2203 -999 -999 -999
2011-08-02 06:51:51 51°13.542 2°56.24 21.222 -999 -999 -999
2011-08-02 06:51:56 51°13.542 2°56.24 21.2289 -999 -999 -999
2011-08-02 06:52:01 51°13.543 2°56.24 21.2363 -999 -999 -999
2011-08-02 06:52:06 51°13.544 2°56.24 21.233 -999 -999 -999
2011-08-02 06:52:11 51°13.545 2°56.24 21.2208 -999 -999 -999
2011-08-02 06:52:16 51°13.546 2°56.239 21.179 -999 -999 -999
2011-08-02 06:52:21 51°13.546 2°56.239 21.1906 -999 -999 -999
2011-08-02 06:52:26 51°13.546 2°56.24 21.1877 -999 -999 -999
2011-08-02 06:52:30 51°13.545 2°56.24 21.1381 -999 -999 -999
2011-08-02 06:52:36 51°13.543 2°56.241 21.2124 -999 -999 -999
2011-08-02 06:52:41 51°13.541 2°56.243 21.2255 -999 -999 -999
2011-08-02 06:52:46 51°13.539 2°56.244 21.2217 -999 -999 -999
2011-08-02 06:52:50 51°13.537 2°56.245 21.2305 -999 -999 -999
2011-08-02 06:52:56 51°13.534 2°56.248 21.2318 -999 -999 -999
2011-08-02 06:53:01 51°13.531 2°56.249 21.2322 -999 -999 -999
2011-08-02 06:53:07 51°13.529 2°56.251 21.2318 -999 -999 -999
2011-08-02 06:53:10 51°13.527 2°56.252 21.2305 -999 -999 -999
2011-08-02 06:53:16 51°13.525 2°56.253 21.2297 -999 -999 -999
2011-08-02 06:53:22 51°13.523 2°56.254 21.243 -999 -999 -999
2011-08-02 06:53:27 51°13.522 2°56.254 21.2444 -999 -999 -999
2011-08-02 06:53:31 51°13.523 2°56.254 21.2602 -999 -999 -999
2011-08-02 06:53:36 51°13.524 2°56.252 21.26 -999 -999 -999
2011-08-02 06:53:41 51°13.525 2°56.25 21.2629 -999 -999 -999
2011-08-02 06:53:47 51°13.528 2°56.246 21.27 -999 -999 -999
2011-08-02 06:53:51 51°13.529 2°56.242 21.2744 -999 -999 -999
2011-08-02 06:53:56 51°13.532 2°56.237 21.2634 -999 -999 -999
2011-08-02 06:54:02 51°13.534 2°56.23 21.2336 -999 -999 -999
2011-08-02 06:54:07 51°13.536 2°56.223 21.2364 -999 -999 -999
2011-08-02 06:54:11 51°13.538 2°56.217 21.2374 -999 -999 -999
2011-08-02 06:54:16 51°13.541 2°56.209 21.2339 -999 -999 -999
2011-08-02 06:54:21 51°13.543 2°56.2 21.2341 -999 -999 -999
2011-08-02 06:54:26 51°13.545 2°56.19 21.2191 -999 -999 -999
2011-08-02 06:54:31 51°13.548 2°56.18 21.2091 -999 -999 -999
2011-08-02 06:54:35 51°13.55 2°56.172 21.208 -999 -999 -999
2011-08-02 06:54:40 51°13.553 2°56.161 21.2007 -999 -999 -999
2011-08-02 06:54:45 51°13.556 2°56.149 21.2011 -999 -999 -999
2011-08-02 06:54:50 51°13.559 2°56.138 21.2001 -999 -999 -999
2011-08-02 06:54:55 51°13.562 2°56.126 21.1933 -999 -999 -999
2011-08-02 06:55:00 51°13.566 2°56.114 21.1843 -999 -999 -999
2011-08-02 06:55:05 51°13.57 2°56.101 21.18 -999 -999 -999
2011-08-02 06:55:10 51°13.574 2°56.089 21.1786 -999 -999 -999
2011-08-02 06:55:15 51°13.578 2°56.077 21.1786 -999 -999 -999
2011-08-02 06:55:19 51°13.582 2°56.067 21.188 -999 -999 -999
2011-08-02 06:55:24 51°13.587 2°56.055 21.1905 -999 -999 -999
2011-08-02 06:55:29 51°13.592 2°56.042 21.1925 -999 -999 -999
2011-08-02 06:55:34 51°13.597 2°56.03 21.1926 -999 -999 -999
2011-08-02 06:55:39 51°13.602 2°56.018 21.2015 -999 -999 -999
2011-08-02 06:55:44 51°13.608 2°56.005 21.2056 -999 -999 -999
2011-08-02 06:55:49 51°13.613 2°55.993 21.2091 -999 -999 -999
2011-08-02 06:55:54 51°13.619 2°55.98 21.2229 -999 -999 -999
2011-08-02 06:55:59 51°13.624 2°55.968 21.229 -999 -999 -999
2011-08-02 06:56:03 51°13.629 2°55.958 21.2258 -999 -999 -999
2011-08-02 06:56:09 51°13.635 2°55.942 21.2144 -999 -999 -999
2011-08-02 06:56:13 51°13.64 2°55.932 21.2164 -999 -999 -999
2011-08-02 06:56:18 51°13.646 2°55.919 21.2129 -999 -999 -999
2011-08-02 06:56:23 51°13.652 2°55.907 21.2152 -999 -999 -999
2011-08-02 06:56:28 51°13.657 2°55.894 21.2183 -999 -999 -999
2011-08-02 06:56:33 51°13.663 2°55.881 21.222 -999 -999 -999
2011-08-02 06:56:38 51°13.669 2°55.868 21.2242 -999 -999 -999
2011-08-02 06:56:43 51°13.675 2°55.855 21.2281 -999 -999 -999
2011-08-02 06:56:49 51°13.682 2°55.839 21.2305 -999 -999 -999
2011-08-02 06:56:54 51°13.688 2°55.826 21.2312 -999 -999 -999
2011-08-02 06:56:59 51°13.694 2°55.813 21.2257 -999 -999 -999
2011-08-02 06:57:04 51°13.7 2°55.8 21.2229 -999 -999 -999
2011-08-02 06:57:09 51°13.707 2°55.786 21.2108 -999 -999 -999
2011-08-02 06:57:14 51°13.713 2°55.773 21.1955 -999 -999 -999
2011-08-02 06:57:19 51°13.719 2°55.76 21.1805 -999 -999 -999
2011-08-02 06:57:23 51°13.725 2°55.749 21.1654 -999 -999 -999
2011-08-02 06:57:28 51°13.732 2°55.736 21.156 -999 -999 -999
2011-08-02 06:57:33 51°13.739 2°55.724 21.1576 -999 -999 -999
2011-08-02 06:57:39 51°13.749 2°55.71 21.1766 -999 -999 -999
2011-08-02 06:57:43 51°13.755 2°55.701 21.1784 -999 -999 -999
2011-08-02 06:57:48 51°13.763 2°55.689 21.1777 -999 -999 -999
2011-08-02 06:57:53 51°13.772 2°55.679 21.1902 -999 -999 -999
2011-08-02 06:57:59 51°13.782 2°55.667 21.1877 -999 -999 -999
2011-08-02 06:58:03 51°13.789 2°55.659 21.1883 -999 -999 -999
2011-08-02 06:58:09 51°13.8 2°55.648 21.1884 -999 -999 -999
2011-08-02 06:58:14 51°13.809 2°55.64 21.1898 -999 -999 -999
2011-08-02 06:58:19 51°13.819 2°55.632 21.1965 -999 -999 -999
2011-08-02 06:58:25 51°13.83 2°55.623 21.2013 -999 -999 -999
2011-08-02 06:58:31 51°13.842 2°55.615 21.236 -999 -999 -999
2011-08-02 06:58:35 51°13.85 2°55.609 21.2702 -999 -999 -999
2011-08-02 06:58:40 51°13.86 2°55.603 21.2963 -999 -999 -999
2011-08-02 06:58:46 51°13.872 2°55.595 21.2865 -999 -999 -999
2011-08-02 06:58:51 51°13.882 2°55.589 21.2842 -999 -999 -999
2011-08-02 06:58:55 51°13.89 2°55.583 21.2846 -999 -999 -999
2011-08-02 06:59:00 51°13.901 2°55.576 21.2727 -999 -999 -999
2011-08-02 06:59:05 51°13.911 2°55.569 21.271 -999 -999 -999
2011-08-02 06:59:11 51°13.924 2°55.561 21.2706 -999 -999 -999
2011-08-02 06:59:15 51°13.932 2°55.555 21.2694 -999 -999 -999
2011-08-02 06:59:20 51°13.943 2°55.548 21.2719 -999 -999 -999
2011-08-02 06:59:25 51°13.954 2°55.541 21.2705 -999 -999 -999
2011-08-02 06:59:31 51°13.967 2°55.533 21.2708 -999 -999 -999
2011-08-02 06:59:35 51°13.975 2°55.527 21.2657 -999 -999 -999
2011-08-02 06:59:41 51°13.988 2°55.519 21.2712 -999 -999 -999
2011-08-02 06:59:46 51°13.999 2°55.511 21.2741 -999 -999 -999
2011-08-02 06:59:51 51°14.01 2°55.504 21.2721 -999 -999 -999
2011-08-02 06:59:55 51°14.019 2°55.498 21.2687 -999 -999 -999
2011-08-02 07:00:00 51°14.03 2°55.491 21.265 -999 -999 -999
2011-08-02 07:00:05 51°14.041 2°55.484 21.2522 -999 -999 -999
2011-08-02 07:00:10 51°14.052 2°55.476 21.2681 -999 -999 -999
2011-08-02 07:00:15 51°14.063 2°55.469 21.2779 -999 -999 -999
2011-08-02 07:00:19 51°14.072 2°55.463 21.2612 -999 -999 -999
2011-08-02 07:00:25 51°14.085 2°55.454 21.2944 -999 -999 -999
2011-08-02 07:00:30 51°14.096 2°55.446 21.2851 -999 -999 -999
2011-08-02 07:00:35 51°14.107 2°55.437 21.2946 -999 -999 -999
2011-08-02 07:00:39 51°14.116 2°55.431 21.2916 -999 -999 -999
2011-08-02 07:00:44 51°14.127 2°55.422 21.2517 -999 -999 -999
2011-08-02 07:00:50 51°14.139 2°55.411 21.2413 -999 -999 -999
2011-08-02 07:00:55 51°14.15 2°55.402 21.272 -999 -999 -999
2011-08-02 07:00:59 51°14.159 2°55.395 21.2743 -999 -999 -999
2011-08-02 07:01:04 51°14.169 2°55.385 21.2917 -999 -999 -999
2011-08-02 07:01:10 51°14.182 2°55.374 21.2949 -999 -999 -999
2011-08-02 07:01:14 51°14.191 2°55.367 21.2758 -999 -999 -999
2011-08-02 07:01:19 51°14.202 2°55.357 21.295 -999 -999 -999
2011-08-02 07:01:24 51°14.213 2°55.347 21.2662 -999 -999 -999
2011-08-02 07:01:29 51°14.223 2°55.338 21.2833 -999 -999 -999
2011-08-02 07:01:34 51°14.235 2°55.328 21.2713 -999 -999 -999
2011-08-02 07:01:39 51°14.246 2°55.318 21.3044 -999 -999 -999
2011-08-02 07:01:44 51°14.258 2°55.307 21.3079 -999 -999 -999
2011-08-02 07:01:49 51°14.269 2°55.297 21.2765 -999 -999 -999
2011-08-02 07:01:55 51°14.283 2°55.284 21.2643 -999 -999 -999
2011-08-02 07:01:59 51°14.293 2°55.275 21.3072 -999 -999 -999
2011-08-02 07:02:04 51°14.305 2°55.263 21.2982 -999 -999 -999
2011-08-02 07:02:10 51°14.319 2°55.249 21.2672 -999 -999 -999
2011-08-02 07:02:15 51°14.331 2°55.238 21.2493 -999 -999 -999
2011-08-02 07:02:20 51°14.344 2°55.226 21.2729 -999 -999 -999
2011-08-02 07:02:26 51°14.359 2°55.212 21.2975 -999 -999 -999
2011-08-02 07:02:31 51°14.371 2°55.2 21.3126 -999 -999 -999
2011-08-02 07:02:35 51°14.381 2°55.191 21.3159 -999 -999 -999
2011-08-02 07:02:40 51°14.394 2°55.178 21.3091 -999 -999 -999
2011-08-02 07:02:46 51°14.409 2°55.162 21.2747 -999 -999 -999
2011-08-02 07:02:51 51°14.421 2°55.149 21.2849 -999 -999 -999
2011-08-02 07:02:55 51°14.431 2°55.139 21.3115 -999 -999 -999
2011-08-02 07:03:00 51°14.444 2°55.125 21.2869 -999 -999 -999
2011-08-02 07:03:05 51°14.456 2°55.111 21.2781 -999 -999 -999
2011-08-02 07:03:11 51°14.472 2°55.094 21.2906 -999 -999 -999
2011-08-02 07:03:15 51°14.482 2°55.082 21.2997 -999 -999 -999
2011-08-02 07:03:20 51°14.495 2°55.068 21.3005 -999 -999 -999
2011-08-02 07:03:24 51°14.505 2°55.055 21.267 -999 -999 -999
2011-08-02 07:03:30 51°14.521 2°55.037 21.3195 -999 -999 -999
2011-08-02 07:03:34 51°14.531 2°55.024 21.3263 -999 -999 -999
2011-08-02 07:03:39 51°14.543 2°55.006 21.2908 -999 -999 -999
2011-08-02 07:03:43 51°14.553 2°54.99 21.2135 -999 -999 -999
2011-08-02 07:03:48 51°14.565 2°54.97 21.2423 -999 -999 -999
2011-08-02 07:03:53 51°14.577 2°54.951 21.1953 -999 -999 -999
2011-08-02 07:03:58 51°14.59 2°54.932 21.259 -999 -999 -999
2011-08-02 07:04:03 51°14.603 2°54.914 21.2425 -999 -999 -999
2011-08-02 07:04:07 51°14.613 2°54.899 21.2898 -999 -999 -999
2011-08-02 07:04:12 51°14.627 2°54.881 21.255 -999 -999 -999
2011-08-02 07:04:17 51°14.64 2°54.863 21.2906 -999 -999 -999
2011-08-02 07:04:22 51°14.654 2°54.846 21.2888 -999 -999 -999
2011-08-02 07:04:27 51°14.668 2°54.829 21.3101 -999 -999 -999
2011-08-02 07:04:32 51°14.682 2°54.812 21.245 -999 -999 -999
2011-08-02 07:04:38 51°14.698 2°54.791 21.2839 -999 -999 -999
2011-08-02 07:04:42 51°14.71 2°54.777 21.2719 -999 -999 -999
2011-08-02 07:04:47 51°14.724 2°54.761 21.2641 -999 -999 -999
2011-08-02 07:04:52 51°14.738 2°54.744 21.2766 -999 -999 -999
2011-08-02 07:04:57 51°14.752 2°54.728 21.2777 -999 -999 -999
2011-08-02 07:05:02 51°14.767 2°54.712 21.2889 -999 -999 -999
2011-08-02 07:05:07 51°14.781 2°54.696 21.3158 -999 -999 -999
2011-08-02 07:05:12 51°14.796 2°54.681 21.2758 -999 -999 -999
2011-08-02 07:05:17 51°14.81 2°54.665 21.3202 -999 -999 -999
2011-08-02 07:05:22 51°14.825 2°54.65 21.3235 -999 -999 -999
2011-08-02 07:05:27 51°14.839 2°54.633 21.3195 -999 -999 -999
2011-08-02 07:05:32 51°14.853 2°54.617 21.3055 -999 -999 -999
2011-08-02 07:05:37 51°14.868 2°54.6 21.3395 -999 -999 -999
2011-08-02 07:05:42 51°14.882 2°54.583 21.3053 -999 -999 -999
2011-08-02 07:05:47 51°14.895 2°54.565 21.3057 -999 -999 -999
2011-08-02 07:05:52 51°14.909 2°54.547 21.3029 -999 -999 -999
2011-08-02 07:05:57 51°14.923 2°54.528 21.3311 -999 -999 -999
2011-08-02 07:06:02 51°14.936 2°54.51 21.2966 -999 -999 -999
2011-08-02 07:06:07 51°14.949 2°54.491 21.2368 -999 -999 -999
2011-08-02 07:06:12 51°14.962 2°54.472 21.2919 -999 -999 -999
2011-08-02 07:06:18 51°14.978 2°54.449 21.3146 -999 -999 -999
2011-08-02 07:06:22 51°14.989 2°54.435 21.2535 -999 -999 -999
2011-08-02 07:06:27 51°15.003 2°54.417 21.3259 -999 -999 -999
2011-08-02 07:06:32 51°15.016 2°54.399 21.2961 -999 -999 -999
2011-08-02 07:06:38 51°15.032 2°54.376 21.3189 -999 -999 -999
2011-08-02 07:06:43 51°15.044 2°54.356 21.257 -999 -999 -999
2011-08-02 07:06:47 51°15.054 2°54.341 21.2632 -999 -999 -999
2011-08-02 07:06:52 51°15.067 2°54.321 21.2728 -999 -999 -999
2011-08-02 07:06:57 51°15.08 2°54.303 21.3196 -999 -999 -999
2011-08-02 07:07:03 51°15.096 2°54.28 21.3147 -999 -999 -999
2011-08-02 07:07:07 51°15.106 2°54.265 21.2785 -999 -999 -999
2011-08-02 07:07:12 51°15.118 2°54.246 21.2411 -999 -999 -999
2011-08-02 07:07:17 51°15.131 2°54.226 21.2408 -999 -999 -999
2011-08-02 07:07:23 51°15.147 2°54.204 21.2477 -999 -999 -999
2011-08-02 07:07:27 51°15.157 2°54.19 21.2637 -999 -999 -999
2011-08-02 07:07:32 51°15.171 2°54.174 21.2968 -999 -999 -999
2011-08-02 07:07:37 51°15.185 2°54.157 21.276 -999 -999 -999
2011-08-02 07:07:42 51°15.199 2°54.141 21.2725 -999 -999 -999
2011-08-02 07:07:47 51°15.213 2°54.125 21.3 -999 -999 -999
2011-08-02 07:07:52 51°15.228 2°54.109 21.3206 -999 -999 -999
2011-08-02 07:07:57 51°15.242 2°54.094 21.2967 -999 -999 -999
2011-08-02 07:08:02 51°15.256 2°54.078 21.3187 -999 -999 -999
2011-08-02 07:08:07 51°15.271 2°54.063 21.2929 -999 -999 -999
2011-08-02 07:08:12 51°15.285 2°54.047 21.2972 -999 -999 -999
2011-08-02 07:08:17 51°15.299 2°54.031 21.3252 -999 -999 -999
2011-08-02 07:08:22 51°15.313 2°54.014 21.3273 -999 -999 -999
2011-08-02 07:08:27 51°15.327 2°53.997 21.3189 -999 -999 -999
2011-08-02 07:08:32 51°15.341 2°53.979 21.3133 -999 -999 -999
2011-08-02 07:08:38 51°15.357 2°53.957 21.2947 -999 -999 -999
2011-08-02 07:08:42 51°15.367 2°53.942 21.2625 -999 -999 -999
2011-08-02 07:08:47 51°15.38 2°53.923 21.2458 -999 -999 -999
2011-08-02 07:08:52 51°15.393 2°53.905 21.279 -999 -999 -999
2011-08-02 07:08:58 51°15.409 2°53.883 21.2344 -999 -999 -999
2011-08-02 07:09:03 51°15.423 2°53.865 21.2735 -999 -999 -999
2011-08-02 07:09:07 51°15.434 2°53.852 21.2884 -999 -999 -999
2011-08-02 07:09:12 51°15.448 2°53.835 21.2695 -999 -999 -999
2011-08-02 07:09:17 51°15.462 2°53.818 21.302 -999 -999 -999
2011-08-02 07:09:23 51°15.479 2°53.799 21.3134 -999 -999 -999
2011-08-02 07:09:27 51°15.491 2°53.787 21.3104 -999 -999 -999
2011-08-02 07:09:32 51°15.506 2°53.771 21.3087 -999 -999 -999
2011-08-02 07:09:37 51°15.52 2°53.756 21.3137 -999 -999 -999
2011-08-02 07:09:43 51°15.538 2°53.737 21.3077 -999 -999 -999
2011-08-02 07:09:47 51°15.549 2°53.725 21.3201 -999 -999 -999
2011-08-02 07:09:52 51°15.564 2°53.709 21.3118 -999 -999 -999
2011-08-02 07:09:57 51°15.579 2°53.694 21.3147 -999 -999 -999
2011-08-02 07:10:02 51°15.594 2°53.678 21.3224 -999 -999 -999
2011-08-02 07:10:07 51°15.608 2°53.663 21.3213 -999 -999 -999
2011-08-02 07:10:12 51°15.623 2°53.647 21.3224 -999 -999 -999
2011-08-02 07:10:17 51°15.637 2°53.631 21.317 -999 -999 -999
2011-08-02 07:10:22 51°15.652 2°53.615 21.3293 -999 -999 -999
2011-08-02 07:10:27 51°15.666 2°53.599 21.3332 -999 -999 -999
2011-08-02 07:10:32 51°15.681 2°53.583 21.3175 -999 -999 -999
2011-08-02 07:10:37 51°15.695 2°53.565 21.3232 -999 -999 -999
2011-08-02 07:10:42 51°15.709 2°53.548 21.2959 -999 -999 -999
2011-08-02 07:10:47 51°15.723 2°53.531 21.3071 -999 -999 -999
2011-08-02 07:10:52 51°15.737 2°53.514 21.3055 -999 -999 -999
2011-08-02 07:10:57 51°15.751 2°53.496 21.2929 -999 -999 -999
2011-08-02 07:11:02 51°15.766 2°53.48 21.2556 -999 -999 -999
2011-08-02 07:11:07 51°15.78 2°53.464 21.2911 -999 -999 -999
2011-08-02 07:11:12 51°15.795 2°53.448 21.3023 -999 -999 -999
2011-08-02 07:11:18 51°15.813 2°53.43 21.2825 -999 -999 -999
2011-08-02 07:11:22 51°15.825 2°53.419 21.294 -999 -999 -999
2011-08-02 07:11:27 51°15.84 2°53.405 21.295 -999 -999 -999
2011-08-02 07:11:32 51°15.856 2°53.391 21.3176 -999 -999 -999
2011-08-02 07:11:37 51°15.871 2°53.378 21.3111 -999 -999 -999
2011-08-02 07:11:42 51°15.887 2°53.365 21.3278 -999 -999 -999
2011-08-02 07:11:47 51°15.903 2°53.352 21.3312 -999 -999 -999
2011-08-02 07:11:52 51°15.918 2°53.34 21.3223 -999 -999 -999
2011-08-02 07:11:57 51°15.934 2°53.327 21.3311 -999 -999 -999
2011-08-02 07:12:02 51°15.949 2°53.314 21.3231 -999 -999 -999
2011-08-02 07:12:07 51°15.965 2°53.301 21.3251 -999 -999 -999
2011-08-02 07:12:12 51°15.98 2°53.288 21.3412 -999 -999 -999
2011-08-02 07:12:17 51°15.996 2°53.274 21.3443 -999 -999 -999
2011-08-02 07:12:22 51°16.011 2°53.26 21.3171 -999 -999 -999
2011-08-02 07:12:27 51°16.026 2°53.246 21.3238 -999 -999 -999
2011-08-02 07:12:32 51°16.04 2°53.231 21.3173 -999 -999 -999
2011-08-02 07:12:38 51°16.058 2°53.212 21.3011 -999 -999 -999
2011-08-02 07:12:42 51°16.07 2°53.2 21.3099 -999 -999 -999
2011-08-02 07:12:47 51°16.085 2°53.185 21.3084 -999 -999 -999
2011-08-02 07:12:52 51°16.099 2°53.17 21.3122 -999 -999 -999
2011-08-02 07:12:57 51°16.114 2°53.156 21.3454 -999 -999 -999
2011-08-02 07:13:02 51°16.13 2°53.142 21.3296 -999 -999 -999
2011-08-02 07:13:07 51°16.145 2°53.128 21.3262 -999 -999 -999
2011-08-02 07:13:12 51°16.16 2°53.113 21.338 -999 -999 -999
2011-08-02 07:13:17 51°16.175 2°53.099 21.3126 -999 -999 -999
2011-08-02 07:13:22 51°16.19 2°53.084 21.3033 -999 -999 -999
2011-08-02 07:13:27 51°16.205 2°53.069 21.3145 -999 -999 -999
2011-08-02 07:13:32 51°16.22 2°53.055 21.3125 -999 -999 -999
2011-08-02 07:13:37 51°16.235 2°53.04 21.2997 -999 -999 -999
2011-08-02 07:13:42 51°16.25 2°53.027 21.2637 -999 -999 -999
2011-08-02 07:13:47 51°16.266 2°53.014 21.2884 -999 -999 -999
2011-08-02 07:13:52 51°16.281 2°53.001 21.3318 -999 -999 -999
2011-08-02 07:13:57 51°16.297 2°52.99 21.3218 -999 -999 -999
2011-08-02 07:14:02 51°16.313 2°52.979 21.3376 -999 -999 -999
2011-08-02 07:14:07 51°16.329 2°52.969 21.3287 -999 -999 -999
2011-08-02 07:14:12 51°16.345 2°52.958 21.3443 -999 -999 -999
2011-08-02 07:14:17 51°16.362 2°52.948 21.353 -999 -999 -999
2011-08-02 07:14:23 51°16.381 2°52.935 21.3331 -999 -999 -999
2011-08-02 07:14:27 51°16.394 2°52.927 21.3465 -999 -999 -999
2011-08-02 07:14:32 51°16.41 2°52.916 21.3604 -999 -999 -999
2011-08-02 07:14:37 51°16.426 2°52.905 21.3596 -999 -999 -999
2011-08-02 07:14:42 51°16.442 2°52.894 21.3454 -999 -999 -999
2011-08-02 07:14:47 51°16.458 2°52.882 21.3465 -999 -999 -999
2011-08-02 07:14:52 51°16.473 2°52.869 21.3285 -999 -999 -999
2011-08-02 07:14:57 51°16.489 2°52.856 21.3254 -999 -999 -999
2011-08-02 07:15:02 51°16.504 2°52.843 21.295 -999 -999 -999
2011-08-02 07:15:07 51°16.52 2°52.83 21.3265 -999 -999 -999
2011-08-02 07:15:12 51°16.535 2°52.817 21.3136 -999 -999 -999
2011-08-02 07:15:17 51°16.551 2°52.805 21.3014 -999 -999 -999
2011-08-02 07:15:22 51°16.567 2°52.793 21.2968 -999 -999 -999
2011-08-02 07:15:27 51°16.583 2°52.782 21.3234 -999 -999 -999
2011-08-02 07:15:32 51°16.599 2°52.771 21.3342 -999 -999 -999
2011-08-02 07:15:37 51°16.615 2°52.762 21.3402 -999 -999 -999
2011-08-02 07:15:42 51°16.631 2°52.752 21.3491 -999 -999 -999
2011-08-02 07:15:47 51°16.647 2°52.743 21.3525 -999 -999 -999
2011-08-02 07:15:52 51°16.664 2°52.734 21.3354 -999 -999 -999
2011-08-02 07:15:57 51°16.68 2°52.725 21.3301 -999 -999 -999
2011-08-02 07:16:02 51°16.696 2°52.716 21.3515 -999 -999 -999
2011-08-02 07:16:07 51°16.713 2°52.707 21.3495 -999 -999 -999
2011-08-02 07:16:12 51°16.729 2°52.698 21.3408 -999 -999 -999
2011-08-02 07:16:17 51°16.745 2°52.689 21.3572 -999 -999 -999
2011-08-02 07:16:23 51°16.764 2°52.678 21.3718 -999 -999 -999
2011-08-02 07:16:27 51°16.777 2°52.67 21.3582 -999 -999 -999
2011-08-02 07:16:32 51°16.792 2°52.66 21.3325 -999 -999 -999
2011-08-02 07:16:37 51°16.808 2°52.649 21.3134 -999 -999 -999
2011-08-02 07:16:42 51°16.824 2°52.638 21.3144 -999 -999 -999
2011-08-02 07:16:47 51°16.839 2°52.628 21.2847 -999 -999 -999
2011-08-02 07:16:52 51°16.855 2°52.618 21.2787 -999 -999 -999
2011-08-02 07:16:57 51°16.871 2°52.61 21.2817 -999 -999 -999
2011-08-02 07:17:02 51°16.887 2°52.603 21.3155 -999 -999 -999
2011-08-02 07:17:07 51°16.904 2°52.598 21.3392 -999 -999 -999
2011-08-02 07:17:12 51°16.92 2°52.594 21.3423 -999 -999 -999
2011-08-02 07:17:18 51°16.94 2°52.589 21.3392 -999 -999 -999
2011-08-02 07:17:22 51°16.954 2°52.586 21.3354 -999 -999 -999
2011-08-02 07:17:27 51°16.97 2°52.582 21.3539 -999 -999 -999
2011-08-02 07:17:32 51°16.987 2°52.58 21.3388 -999 -999 -999
2011-08-02 07:17:38 51°17.007 2°52.576 21.3636 -999 -999 -999
2011-08-02 07:17:42 51°17.02 2°52.574 21.3453 -999 -999 -999
2011-08-02 07:17:47 51°17.037 2°52.57 21.3624 -999 -999 -999
2011-08-02 07:17:52 51°17.053 2°52.567 21.3339 -999 -999 -999
2011-08-02 07:17:58 51°17.073 2°52.563 21.3349 -999 -999 -999
2011-08-02 07:18:02 51°17.086 2°52.56 21.3561 -999 -999 -999
2011-08-02 07:18:07 51°17.103 2°52.556 21.3565 -999 -999 -999
2011-08-02 07:18:12 51°17.119 2°52.552 21.3245 -999 -999 -999
2011-08-02 07:18:17 51°17.136 2°52.548 21.3528 -999 -999 -999
2011-08-02 07:18:22 51°17.152 2°52.544 21.3444 -999 -999 -999
2011-08-02 07:18:27 51°17.169 2°52.54 21.3459 -999 -999 -999
2011-08-02 07:18:32 51°17.186 2°52.537 21.3548 -999 -999 -999
2011-08-02 07:18:37 51°17.202 2°52.533 21.365 -999 -999 -999
2011-08-02 07:18:42 51°17.219 2°52.53 21.3627 -999 -999 -999
2011-08-02 07:18:47 51°17.236 2°52.526 21.3412 -999 -999 -999
2011-08-02 07:18:52 51°17.252 2°52.522 21.3423 -999 -999 -999
2011-08-02 07:18:57 51°17.269 2°52.517 21.3536 -999 -999 -999
2011-08-02 07:19:02 51°17.286 2°52.512 21.3492 -999 -999 -999
2011-08-02 07:19:07 51°17.302 2°52.508 21.1129 -999 -999 -999
2011-08-02 07:19:12 51°17.319 2°52.503 21.1621 -999 -999 -999
2011-08-02 07:19:17 51°17.335 2°52.498 21.2514 -999 -999 -999
2011-08-02 07:19:22 51°17.352 2°52.493 21.3038 -999 -999 -999
2011-08-02 07:19:27 51°17.369 2°52.488 21.313 -999 -999 -999
2011-08-02 07:19:32 51°17.385 2°52.482 21.31 -999 -999 -999
2011-08-02 07:19:37 51°17.402 2°52.477 21.3093 -999 -999 -999
2011-08-02 07:19:42 51°17.418 2°52.472 21.3036 -999 -999 -999
2011-08-02 07:19:47 51°17.435 2°52.467 21.2954 -999 -999 -999
2011-08-02 07:19:52 51°17.452 2°52.462 21.2966 -999 -999 -999
2011-08-02 07:19:57 51°17.468 2°52.456 21.2898 -999 -999 -999
2011-08-02 07:20:02 51°17.485 2°52.45 21.2935 -999 -999 -999
2011-08-02 07:20:07 51°17.501 2°52.444 21.2957 -999 -999 -999
2011-08-02 07:20:12 51°17.518 2°52.437 21.2982 -999 -999 -999
2011-08-02 07:20:17 51°17.534 2°52.431 21.298 -999 -999 -999
2011-08-02 07:20:22 51°17.551 2°52.424 21.298 -999 -999 -999
2011-08-02 07:20:27 51°17.567 2°52.416 21.3005 -999 -999 -999
2011-08-02 07:20:32 51°17.583 2°52.408 21.3022 -999 -999 -999
2011-08-02 07:20:37 51°17.6 2°52.4 21.3037 -999 -999 -999
2011-08-02 07:20:43 51°17.619 2°52.39 21.3052 -999 -999 -999
2011-08-02 07:20:47 51°17.632 2°52.384 21.306 -999 -999 -999
2011-08-02 07:20:52 51°17.648 2°52.375 21.3078 -999 -999 -999
2011-08-02 07:20:57 51°17.664 2°52.367 21.3081 -999 -999 -999
2011-08-02 07:21:02 51°17.681 2°52.359 21.3099 -999 -999 -999
2011-08-02 07:21:07 51°17.697 2°52.351 21.3129 -999 -999 -999
2011-08-02 07:21:12 51°17.713 2°52.344 21.3102 -999 -999 -999
2011-08-02 07:21:17 51°17.729 2°52.337 21.3147 -999 -999 -999
2011-08-02 07:21:22 51°17.746 2°52.329 21.3189 -999 -999 -999
2011-08-02 07:21:27 51°17.762 2°52.322 21.3204 -999 -999 -999
2011-08-02 07:21:32 51°17.778 2°52.315 21.322 -999 -999 -999
2011-08-02 07:21:38 51°17.798 2°52.305 21.3178 -999 -999 -999
2011-08-02 07:21:42 51°17.811 2°52.3 21.3195 -999 -999 -999
2011-08-02 07:21:47 51°17.827 2°52.292 21.3221 -999 -999 -999
2011-08-02 07:21:52 51°17.843 2°52.285 21.3196 -999 -999 -999
2011-08-02 07:21:58 51°17.863 2°52.277 21.3221 -999 -999 -999
2011-08-02 07:22:02 51°17.876 2°52.271 21.3304 -999 -999 -999
2011-08-02 07:22:07 51°17.893 2°52.264 21.3315 -999 -999 -999
2011-08-02 07:22:12 51°17.909 2°52.257 21.3348 -999 -999 -999
2011-08-02 07:22:18 51°17.929 2°52.249 21.3354 -999 -999 -999
2011-08-02 07:22:22 51°17.942 2°52.244 21.3356 -999 -999 -999
2011-08-02 07:22:27 51°17.959 2°52.237 21.3348 -999 -999 -999
2011-08-02 07:22:32 51°17.976 2°52.23 21.3356 -999 -999 -999
2011-08-02 07:22:37 51°17.992 2°52.224 21.3382 -999 -999 -999
2011-08-02 07:22:42 51°18.009 2°52.217 21.3417 -999 -999 -999
2011-08-02 07:22:47 51°18.025 2°52.211 21.3441 -999 -999 -999
2011-08-02 07:22:52 51°18.042 2°52.205 21.3397 -999 -999 -999
2011-08-02 07:22:57 51°18.059 2°52.199 21.3471 -999 -999 -999
2011-08-02 07:23:02 51°18.075 2°52.193 21.3432 -999 -999 -999
2011-08-02 07:23:07 51°18.092 2°52.188 21.3532 -999 -999 -999
2011-08-02 07:23:12 51°18.109 2°52.182 21.348 -999 -999 -999
2011-08-02 07:23:17 51°18.125 2°52.177 21.3441 -999 -999 -999
2011-08-02 07:23:22 51°18.142 2°52.172 21.3525 -999 -999 -999
2011-08-02 07:23:27 51°18.159 2°52.168 21.3584 -999 -999 -999
2011-08-02 07:23:32 51°18.176 2°52.164 21.3611 -999 -999 -999
2011-08-02 07:23:37 51°18.192 2°52.159 21.3642 -999 -999 -999
2011-08-02 07:23:42 51°18.209 2°52.155 21.3624 -999 -999 -999
2011-08-02 07:23:47 51°18.226 2°52.15 21.3641 -999 -999 -999
2011-08-02 07:23:52 51°18.242 2°52.146 21.3651 -999 -999 -999
2011-08-02 07:23:57 51°18.259 2°52.141 21.3618 -999 -999 -999
2011-08-02 07:24:02 51°18.276 2°52.136 21.3643 -999 -999 -999
2011-08-02 07:24:07 51°18.292 2°52.131 21.3613 -999 -999 -999
2011-08-02 07:24:12 51°18.309 2°52.126 21.3596 -999 -999 -999
2011-08-02 07:24:17 51°18.326 2°52.122 21.3772 -999 -999 -999
2011-08-02 07:24:22 51°18.342 2°52.118 21.3733 -999 -999 -999
2011-08-02 07:24:27 51°18.359 2°52.114 21.3779 -999 -999 -999
2011-08-02 07:24:32 51°18.376 2°52.11 21.3762 -999 -999 -999
2011-08-02 07:24:37 51°18.393 2°52.107 21.3885 -999 -999 -999
2011-08-02 07:24:42 51°18.41 2°52.104 21.3896 -999 -999 -999
2011-08-02 07:24:47 51°18.426 2°52.1 21.3927 -999 -999 -999
2011-08-02 07:24:52 51°18.443 2°52.096 21.3866 -999 -999 -999
2011-08-02 07:24:57 51°18.46 2°52.091 21.3791 -999 -999 -999
2011-08-02 07:25:02 51°18.477 2°52.086 21.3834 -999 -999 -999
2011-08-02 07:25:07 51°18.493 2°52.08 21.3833 -999 -999 -999
2011-08-02 07:25:12 51°18.51 2°52.076 21.3981 -999 -999 -999
2011-08-02 07:25:17 51°18.527 2°52.072 21.3878 -999 -999 -999
2011-08-02 07:25:22 51°18.544 2°52.067 21.4013 -999 -999 -999
2011-08-02 07:25:27 51°18.561 2°52.063 21.4005 -999 -999 -999
2011-08-02 07:25:32 51°18.577 2°52.059 21.4094 -999 -999 -999
2011-08-02 07:25:37 51°18.594 2°52.055 21.4146 -999 -999 -999
2011-08-02 07:25:42 51°18.611 2°52.05 21.4019 -999 -999 -999
2011-08-02 07:25:47 51°18.628 2°52.044 21.4096 -999 -999 -999
2011-08-02 07:25:52 51°18.644 2°52.038 21.419 -999 -999 -999
2011-08-02 07:25:57 51°18.661 2°52.031 21.4207 -999 -999 -999
2011-08-02 07:26:02 51°18.678 2°52.023 21.4198 -999 -999 -999
2011-08-02 07:26:07 51°18.694 2°52.014 21.4096 -999 -999 -999
2011-08-02 07:26:12 51°18.71 2°52.005 21.4205 -999 -999 -999
2011-08-02 07:26:17 51°18.726 2°51.995 21.4118 -999 -999 -999
2011-08-02 07:26:22 51°18.743 2°51.986 21.4217 -999 -999 -999
2011-08-02 07:26:27 51°18.759 2°51.976 21.412 -999 -999 -999
2011-08-02 07:26:32 51°18.775 2°51.966 21.4214 -999 -999 -999
2011-08-02 07:26:37 51°18.791 2°51.955 21.4153 -999 -999 -999
2011-08-02 07:26:42 51°18.807 2°51.945 21.42 -999 -999 -999
2011-08-02 07:26:47 51°18.823 2°51.936 21.4254 -999 -999 -999
2011-08-02 07:26:52 51°18.84 2°51.926 21.4311 -999 -999 -999
2011-08-02 07:26:57 51°18.856 2°51.917 21.4221 -999 -999 -999
2011-08-02 07:27:02 51°18.872 2°51.908 21.4225 -999 -999 -999
2011-08-02 07:27:07 51°18.889 2°51.899 21.4274 -999 -999 -999
2011-08-02 07:27:12 51°18.905 2°51.891 21.4297 -999 -999 -999
2011-08-02 07:27:17 51°18.922 2°51.883 21.4315 -999 -999 -999
2011-08-02 07:27:22 51°18.938 2°51.876 21.4392 -999 -999 -999
2011-08-02 07:27:27 51°18.955 2°51.869 21.4429 -999 -999 -999
2011-08-02 07:27:32 51°18.972 2°51.863 21.4482 -999 -999 -999
2011-08-02 07:27:37 51°18.988 2°51.856 21.451 -999 -999 -999
2011-08-02 07:27:42 51°19.005 2°51.85 21.4525 -999 -999 -999
2011-08-02 07:27:47 51°19.022 2°51.843 21.4554 -999 -999 -999
2011-08-02 07:27:52 51°19.038 2°51.836 21.4577 -999 -999 -999
2011-08-02 07:27:57 51°19.055 2°51.828 21.4579 -999 -999 -999
2011-08-02 07:28:02 51°19.071 2°51.82 21.4627 -999 -999 -999
2011-08-02 07:28:07 51°19.088 2°51.811 21.463 -999 -999 -999
2011-08-02 07:28:12 51°19.104 2°51.802 21.45 -999 -999 -999
2011-08-02 07:28:17 51°19.121 2°51.792 21.4658 -999 -999 -999
2011-08-02 07:28:22 51°19.137 2°51.783 21.4573 -999 -999 -999
2011-08-02 07:28:27 51°19.153 2°51.773 21.454 -999 -999 -999
2011-08-02 07:28:32 51°19.17 2°51.763 21.4532 -999 -999 -999
2011-08-02 07:28:37 51°19.186 2°51.753 21.4645 -999 -999 -999
2011-08-02 07:28:42 51°19.202 2°51.744 21.4685 -999 -999 -999
2011-08-02 07:28:47 51°19.219 2°51.735 21.4759 -999 -999 -999
2011-08-02 07:28:52 51°19.235 2°51.726 21.4799 -999 -999 -999
2011-08-02 07:28:57 51°19.251 2°51.716 21.4828 -999 -999 -999
2011-08-02 07:29:02 51°19.268 2°51.707 21.4705 -999 -999 -999
2011-08-02 07:29:07 51°19.284 2°51.697 21.4764 -999 -999 -999
2011-08-02 07:29:12 51°19.3 2°51.688 21.4778 -999 -999 -999
2011-08-02 07:29:17 51°19.317 2°51.678 21.4791 -999 -999 -999
2011-08-02 07:29:22 51°19.333 2°51.669 21.4893 -999 -999 -999
2011-08-02 07:29:27 51°19.35 2°51.66 21.4923 -999 -999 -999
2011-08-02 07:29:32 51°19.366 2°51.652 21.4926 -999 -999 -999
2011-08-02 07:29:37 51°19.383 2°51.643 21.498 -999 -999 -999
2011-08-02 07:29:42 51°19.399 2°51.635 21.5004 -999 -999 -999
2011-08-02 07:29:47 51°19.416 2°51.626 21.5023 -999 -999 -999
2011-08-02 07:29:52 51°19.433 2°51.618 21.5029 -999 -999 -999
2011-08-02 07:29:57 51°19.449 2°51.609 21.5023 -999 -999 -999
2011-08-02 07:30:02 51°19.465 2°51.6 21.4978 -999 -999 -999
2011-08-02 07:30:07 51°19.482 2°51.591 21.5085 -999 -999 -999
2011-08-02 07:30:12 51°19.498 2°51.582 21.5069 -999 -999 -999
2011-08-02 07:30:17 51°19.515 2°51.573 21.5127 -999 -999 -999
2011-08-02 07:30:22 51°19.531 2°51.565 21.5041 -999 -999 -999
2011-08-02 07:30:27 51°19.547 2°51.556 21.5114 -999 -999 -999
2011-08-02 07:30:32 51°19.564 2°51.548 21.5138 -999 -999 -999
2011-08-02 07:30:37 51°19.58 2°51.54 21.51 -999 -999 -999
2011-08-02 07:30:42 51°19.597 2°51.532 21.5016 -999 -999 -999
2011-08-02 07:30:47 51°19.613 2°51.524 21.5062 -999 -999 -999
2011-08-02 07:30:52 51°19.63 2°51.517 21.5166 -999 -999 -999
2011-08-02 07:30:57 51°19.646 2°51.511 21.526 -999 -999 -999
2011-08-02 07:31:02 51°19.663 2°51.504 21.5293 -999 -999 -999
2011-08-02 07:31:07 51°19.68 2°51.498 21.5322 -999 -999 -999
2011-08-02 07:31:12 51°19.696 2°51.492 21.5348 -999 -999 -999
2011-08-02 07:31:17 51°19.713 2°51.487 21.54 -999 -999 -999
2011-08-02 07:31:22 51°19.73 2°51.481 21.5385 -999 -999 -999
2011-08-02 07:31:27 51°19.746 2°51.474 21.5439 -999 -999 -999
2011-08-02 07:31:32 51°19.763 2°51.468 21.5432 -999 -999 -999
2011-08-02 07:31:37 51°19.78 2°51.461 21.5509 -999 -999 -999
2011-08-02 07:31:42 51°19.796 2°51.454 21.5513 -999 -999 -999
2011-08-02 07:31:47 51°19.813 2°51.447 21.5437 -999 -999 -999
2011-08-02 07:31:52 51°19.829 2°51.439 21.5504 -999 -999 -999
2011-08-02 07:31:57 51°19.846 2°51.431 21.5499 -999 -999 -999
2011-08-02 07:32:02 51°19.862 2°51.422 21.5583 -999 -999 -999
2011-08-02 07:32:07 51°19.879 2°51.414 21.5585 -999 -999 -999
2011-08-02 07:32:12 51°19.895 2°51.405 21.5621 -999 -999 -999
2011-08-02 07:32:17 51°19.911 2°51.395 21.5577 -999 -999 -999
2011-08-02 07:32:22 51°19.927 2°51.386 21.5618 -999 -999 -999
2011-08-02 07:32:27 51°19.944 2°51.377 21.5592 -999 -999 -999
2011-08-02 07:32:32 51°19.96 2°51.368 21.5557 -999 -999 -999
2011-08-02 07:32:37 51°19.977 2°51.359 21.5624 -999 -999 -999
2011-08-02 07:32:42 51°19.993 2°51.35 21.5606 -999 -999 -999
2011-08-02 07:32:47 51°20.009 2°51.341 21.5522 -999 -999 -999
2011-08-02 07:32:52 51°20.026 2°51.332 21.5742 -999 -999 -999
2011-08-02 07:32:57 51°20.042 2°51.324 21.5779 -999 -999 -999
2011-08-02 07:33:02 51°20.059 2°51.316 21.5822 -999 -999 -999
2011-08-02 07:33:07 51°20.075 2°51.309 21.5862 -999 -999 -999
2011-08-02 07:33:12 51°20.092 2°51.301 21.5908 -999 -999 -999
2011-08-02 07:33:17 51°20.108 2°51.293 21.5906 -999 -999 -999
2011-08-02 07:33:22 51°20.125 2°51.284 21.588 -999 -999 -999
2011-08-02 07:33:27 51°20.141 2°51.276 21.5925 -999 -999 -999
2011-08-02 07:33:32 51°20.158 2°51.267 21.6 -999 -999 -999
2011-08-02 07:33:37 51°20.174 2°51.258 21.5931 -999 -999 -999
2011-08-02 07:33:42 51°20.191 2°51.249 21.5963 -999 -999 -999
2011-08-02 07:33:47 51°20.207 2°51.24 21.597 -999 -999 -999
2011-08-02 07:33:52 51°20.224 2°51.23 21.5931 -999 -999 -999
2011-08-02 07:33:57 51°20.24 2°51.221 21.5892 -999 -999 -999
2011-08-02 07:34:02 51°20.257 2°51.212 21.5988 -999 -999 -999
2011-08-02 07:34:07 51°20.273 2°51.204 21.6022 -999 -999 -999
2011-08-02 07:34:12 51°20.29 2°51.196 21.6042 -999 -999 -999
2011-08-02 07:34:17 51°20.307 2°51.188 21.6054 -999 -999 -999
2011-08-02 07:34:22 51°20.323 2°51.181 21.6022 -999 -999 -999
2011-08-02 07:34:27 51°20.34 2°51.174 21.6081 -999 -999 -999
2011-08-02 07:34:32 51°20.357 2°51.167 21.6239 -999 -999 -999
2011-08-02 07:34:37 51°20.374 2°51.16 21.6234 -999 -999 -999
2011-08-02 07:34:42 51°20.391 2°51.153 21.6227 -999 -999 -999
2011-08-02 07:34:47 51°20.408 2°51.146 21.629 -999 -999 -999
2011-08-02 07:34:52 51°20.424 2°51.138 21.6303 -999 -999 -999
2011-08-02 07:34:57 51°20.441 2°51.131 21.6285 -999 -999 -999
2011-08-02 07:35:02 51°20.457 2°51.123 21.6375 -999 -999 -999
2011-08-02 07:35:07 51°20.474 2°51.114 21.6332 -999 -999 -999
2011-08-02 07:35:12 51°20.491 2°51.106 21.6237 -999 -999 -999
2011-08-02 07:35:17 51°20.507 2°51.097 21.6399 -999 -999 -999
2011-08-02 07:35:22 51°20.524 2°51.089 21.6413 -999 -999 -999
2011-08-02 07:35:27 51°20.54 2°51.08 21.6444 -999 -999 -999
2011-08-02 07:35:32 51°20.557 2°51.071 21.6461 -999 -999 -999
2011-08-02 07:35:37 51°20.573 2°51.062 21.638 -999 -999 -999
2011-08-02 07:35:42 51°20.59 2°51.052 21.6534 -999 -999 -999
2011-08-02 07:35:47 51°20.606 2°51.042 21.6485 -999 -999 -999
2011-08-02 07:35:52 51°20.622 2°51.033 21.6485 -999 -999 -999
2011-08-02 07:35:57 51°20.639 2°51.024 21.6475 -999 -999 -999
2011-08-02 07:36:02 51°20.655 2°51.015 21.6479 -999 -999 -999
2011-08-02 07:36:07 51°20.672 2°51.006 21.6514 -999 -999 -999
2011-08-02 07:36:12 51°20.688 2°50.998 21.6486 -999 -999 -999
2011-08-02 07:36:17 51°20.705 2°50.99 21.6589 -999 -999 -999
2011-08-02 07:36:22 51°20.721 2°50.982 21.6648 -999 -999 -999
2011-08-02 07:36:27 51°20.738 2°50.975 21.6653 -999 -999 -999
2011-08-02 07:36:32 51°20.755 2°50.967 21.6745 -999 -999 -999
2011-08-02 07:36:37 51°20.771 2°50.96 21.6741 -999 -999 -999
2011-08-02 07:36:42 51°20.788 2°50.953 21.672 -999 -999 -999
2011-08-02 07:36:47 51°20.805 2°50.947 21.6813 -999 -999 -999
2011-08-02 07:36:52 51°20.822 2°50.94 21.6693 -999 -999 -999
2011-08-02 07:36:57 51°20.838 2°50.933 21.6804 -999 -999 -999
2011-08-02 07:37:02 51°20.855 2°50.927 21.6904 -999 -999 -999
2011-08-02 07:37:07 51°20.872 2°50.92 21.688 -999 -999 -999
2011-08-02 07:37:12 51°20.889 2°50.914 21.6984 -999 -999 -999
2011-08-02 07:37:17 51°20.906 2°50.907 21.6957 -999 -999 -999
2011-08-02 07:37:22 51°20.922 2°50.899 21.697 -999 -999 -999
2011-08-02 07:37:27 51°20.939 2°50.892 21.6967 -999 -999 -999
2011-08-02 07:37:32 51°20.956 2°50.883 21.703 -999 -999 -999
2011-08-02 07:37:37 51°20.973 2°50.875 21.7038 -999 -999 -999
2011-08-02 07:37:42 51°20.989 2°50.866 21.709 -999 -999 -999
2011-08-02 07:37:47 51°21.006 2°50.857 21.7052 -999 -999 -999
2011-08-02 07:37:52 51°21.022 2°50.847 21.7025 -999 -999 -999
2011-08-02 07:37:57 51°21.039 2°50.838 21.6984 -999 -999 -999
2011-08-02 07:38:02 51°21.055 2°50.828 21.6929 -999 -999 -999
2011-08-02 07:38:07 51°21.072 2°50.819 21.6904 -999 -999 -999
2011-08-02 07:38:12 51°21.089 2°50.81 21.7156 -999 -999 -999
2011-08-02 07:38:17 51°21.105 2°50.801 21.7085 -999 -999 -999
2011-08-02 07:38:22 51°21.122 2°50.792 21.7185 -999 -999 -999
2011-08-02 07:38:27 51°21.138 2°50.783 21.7208 -999 -999 -999
2011-08-02 07:38:32 51°21.155 2°50.774 21.7193 -999 -999 -999
2011-08-02 07:38:37 51°21.172 2°50.765 21.7202 -999 -999 -999
2011-08-02 07:38:42 51°21.189 2°50.756 21.7374 -999 -999 -999
2011-08-02 07:38:47 51°21.206 2°50.747 21.733 -999 -999 -999
2011-08-02 07:38:52 51°21.222 2°50.738 21.7203 -999 -999 -999
2011-08-02 07:38:57 51°21.239 2°50.729 21.7145 -999 -999 -999
2011-08-02 07:39:02 51°21.256 2°50.721 21.7289 -999 -999 -999
2011-08-02 07:39:07 51°21.273 2°50.714 21.7454 -999 -999 -999
2011-08-02 07:39:12 51°21.29 2°50.707 21.7403 -999 -999 -999
2011-08-02 07:39:17 51°21.307 2°50.7 21.7562 -999 -999 -999
2011-08-02 07:39:22 51°21.324 2°50.694 21.7586 -999 -999 -999
2011-08-02 07:39:27 51°21.341 2°50.687 21.7601 -999 -999 -999
2011-08-02 07:39:32 51°21.358 2°50.68 21.7582 -999 -999 -999
2011-08-02 07:39:37 51°21.375 2°50.672 21.7511 -999 -999 -999
2011-08-02 07:39:42 51°21.392 2°50.664 21.7604 -999 -999 -999
2011-08-02 07:39:47 51°21.409 2°50.657 21.7636 -999 -999 -999
2011-08-02 07:39:52 51°21.425 2°50.649 21.7729 -999 -999 -999
2011-08-02 07:39:57 51°21.442 2°50.641 21.7701 -999 -999 -999
2011-08-02 07:40:02 51°21.459 2°50.633 21.7714 -999 -999 -999
2011-08-02 07:40:07 51°21.476 2°50.624 21.7703 -999 -999 -999
2011-08-02 07:40:12 51°21.493 2°50.615 21.778 -999 -999 -999
2011-08-02 07:40:17 51°21.51 2°50.606 21.7828 -999 -999 -999
2011-08-02 07:40:22 51°21.526 2°50.596 21.7767 -999 -999 -999
2011-08-02 07:40:27 51°21.543 2°50.587 21.7662 -999 -999 -999
2011-08-02 07:40:32 51°21.559 2°50.577 21.7679 -999 -999 -999
2011-08-02 07:40:37 51°21.576 2°50.568 21.766 -999 -999 -999
2011-08-02 07:40:42 51°21.593 2°50.559 21.772 -999 -999 -999
2011-08-02 07:40:47 51°21.609 2°50.55 21.7669 -999 -999 -999
2011-08-02 07:40:52 51°21.626 2°50.541 21.7749 -999 -999 -999
2011-08-02 07:40:57 51°21.643 2°50.534 21.7793 -999 -999 -999
2011-08-02 07:41:02 51°21.66 2°50.526 21.7989 -999 -999 -999
2011-08-02 07:41:07 51°21.677 2°50.52 21.7999 -999 -999 -999
2011-08-02 07:41:12 51°21.694 2°50.513 21.8076 -999 -999 -999
2011-08-02 07:41:17 51°21.711 2°50.506 21.7998 -999 -999 -999
2011-08-02 07:41:22 51°21.728 2°50.499 21.8151 -999 -999 -999
2011-08-02 07:41:27 51°21.744 2°50.492 21.8107 -999 -999 -999
2011-08-02 07:41:32 51°21.761 2°50.485 21.817 -999 -999 -999
2011-08-02 07:41:37 51°21.778 2°50.478 21.8136 -999 -999 -999
2011-08-02 07:41:42 51°21.795 2°50.47 21.8229 -999 -999 -999
2011-08-02 07:41:47 51°21.812 2°50.462 21.8288 -999 -999 -999
2011-08-02 07:41:52 51°21.828 2°50.454 21.8282 -999 -999 -999
2011-08-02 07:41:57 51°21.845 2°50.445 21.8257 -999 -999 -999
2011-08-02 07:42:02 51°21.862 2°50.435 21.8264 -999 -999 -999
2011-08-02 07:42:07 51°21.878 2°50.426 21.8305 -999 -999 -999
2011-08-02 07:42:12 51°21.895 2°50.416 21.8232 -999 -999 -999
2011-08-02 07:42:17 51°21.912 2°50.406 21.8277 -999 -999 -999
2011-08-02 07:42:22 51°21.928 2°50.396 21.8226 -999 -999 -999
2011-08-02 07:42:27 51°21.945 2°50.386 21.8268 -999 -999 -999
2011-08-02 07:42:32 51°21.961 2°50.377 21.8126 -999 -999 -999
2011-08-02 07:42:37 51°21.978 2°50.367 21.821 -999 -999 -999
2011-08-02 07:42:42 51°21.995 2°50.359 21.8201 -999 -999 -999
2011-08-02 07:42:47 51°22.011 2°50.35 21.8151 -999 -999 -999
2011-08-02 07:42:52 51°22.028 2°50.342 21.8254 -999 -999 -999
2011-08-02 07:42:57 51°22.045 2°50.335 21.8531 -999 -999 -999
2011-08-02 07:43:02 51°22.062 2°50.328 21.8492 -999 -999 -999
2011-08-02 07:43:07 51°22.079 2°50.321 21.8475 -999 -999 -999
2011-08-02 07:43:12 51°22.096 2°50.314 21.8557 -999 -999 -999
2011-08-02 07:43:17 51°22.113 2°50.307 21.8616 -999 -999 -999
2011-08-02 07:43:22 51°22.13 2°50.301 21.8705 -999 -999 -999
2011-08-02 07:43:27 51°22.147 2°50.294 21.8688 -999 -999 -999
2011-08-02 07:43:32 51°22.164 2°50.287 21.8774 -999 -999 -999
2011-08-02 07:43:37 51°22.181 2°50.28 21.8774 -999 -999 -999